Terminal Aerodrome Forecast
Issued by NWS

Home | Current Version | Previous Version | Graphics & Text | Print | Product List | Glossary On
Versions: 1 2 3 4 5 6 7 8 9 10 11 12 13 14 15 16 17 18
321
FTUS43 KOAX 201131
TAFCDR
TAF
KCDR 201131Z 2012/2112 15018G28KT P6SM BKN150
     FM201500 15018G25KT P6SM BKN050 OVC100
     FM202100 13020G28KT 6SM -RA BKN015 OVC025
     FM210000 12015G22KT 3SM -RA BKN007 OVC015=

USA.gov is the U.S. government's official web portal to all federal, state and local government web resources and services.